createdAt,value
2022-09-15T00:00:53.336Z,14.73
2022-09-15T00:01:53.460Z,14.67
2022-09-15T00:02:53.414Z,14.63
2022-09-15T00:03:53.320Z,14.59
2022-09-15T00:04:53.287Z,14.55
2022-09-15T00:05:53.307Z,14.58
2022-09-15T00:06:53.276Z,14.55
2022-09-15T00:07:53.297Z,14.53
2022-09-15T00:08:53.256Z,14.52
2022-09-15T00:09:53.256Z,14.52
2022-09-15T00:10:53.235Z,14.53
2022-09-15T00:11:53.225Z,14.48
2022-09-15T00:12:53.206Z,14.45
2022-09-15T00:13:53.332Z,14.49
2022-09-15T00:14:53.186Z,14.45
2022-09-15T00:15:53.186Z,14.46
2022-09-15T00:16:53.218Z,14.45
2022-09-15T00:17:53.187Z,14.45
2022-09-15T00:18:53.168Z,14.49
2022-09-15T00:19:53.168Z,14.44
2022-09-15T00:20:53.951Z,14.38
2022-09-15T00:21:53.120Z,14.34
2022-09-15T00:22:53.120Z,14.30
2022-09-15T00:23:53.091Z,14.27
2022-09-15T00:24:53.120Z,14.23
2022-09-15T00:25:53.223Z,14.19
2022-09-15T00:26:53.068Z,14.15
2022-09-15T00:27:53.071Z,14.18
2022-09-15T00:28:53.049Z,14.12
2022-09-15T00:29:53.058Z,14.08
2022-09-15T00:30:53.131Z,14.09
2022-09-15T00:31:53.012Z,14.11
2022-09-15T00:32:53.002Z,14.12
2022-09-15T00:33:52.979Z,14.03
2022-09-15T00:34:53.020Z,13.96
2022-09-15T00:35:52.992Z,13.88
2022-09-15T00:36:52.963Z,13.85
2022-09-15T00:37:52.957Z,13.91
2022-09-15T00:38:52.933Z,13.90
2022-09-15T00:39:52.980Z,13.90
2022-09-15T00:40:52.940Z,13.93
2022-09-15T00:41:52.897Z,13.97
2022-09-15T00:42:52.895Z,13.91
2022-09-15T00:43:53.016Z,13.90
2022-09-15T00:44:52.864Z,13.86
2022-09-15T00:45:53.000Z,13.85
2022-09-15T00:47:15.326Z,13.83
2022-09-15T00:47:53.855Z,13.86
2022-09-15T00:48:52.935Z,13.82
2022-09-15T00:49:55.880Z,13.88
2022-09-15T00:50:53.860Z,13.86
2022-09-15T00:51:52.787Z,13.90
2022-09-15T00:52:52.838Z,13.85
2022-09-15T00:53:52.756Z,13.83
2022-09-15T00:54:52.775Z,13.78
2022-09-15T00:55:52.749Z,13.80
2022-09-15T00:56:52.750Z,13.73
2022-09-15T00:57:52.770Z,13.79
2022-09-15T00:58:52.832Z,13.83
2022-09-15T00:59:52.690Z,13.80
2022-09-15T01:00:52.769Z,13.80
2022-09-15T01:01:52.740Z,13.85
2022-09-15T01:02:52.701Z,13.86
2022-09-15T01:03:52.662Z,13.85
2022-09-15T01:04:57.431Z,13.80
2022-09-15T01:05:53.650Z,13.80
2022-09-15T01:06:52.629Z,13.75
2022-09-15T01:07:52.670Z,13.80
2022-09-15T01:08:52.611Z,13.82
2022-09-15T01:09:52.601Z,13.82
2022-09-15T01:10:52.609Z,13.79
2022-09-15T01:11:52.571Z,13.83
2022-09-15T01:12:52.571Z,13.85
2022-09-15T01:13:52.705Z,13.86
2022-09-15T01:14:52.573Z,13.88
2022-09-15T01:15:52.536Z,13.88
2022-09-15T01:16:52.577Z,13.83
2022-09-15T01:17:52.513Z,13.88
2022-09-15T01:18:52.521Z,13.88
2022-09-15T01:19:52.504Z,13.85
2022-09-15T01:20:52.514Z,13.88
2022-09-15T01:21:55.691Z,13.86
2022-09-15T01:22:53.463Z,13.88
2022-09-15T01:23:52.533Z,13.90
2022-09-15T01:24:52.437Z,13.86
2022-09-15T01:25:52.425Z,13.82
2022-09-15T01:26:52.471Z,13.83
2022-09-15T01:27:52.413Z,13.86
2022-09-15T01:28:52.425Z,13.86
2022-09-15T01:29:52.439Z,13.86
2022-09-15T01:30:52.373Z,13.83
2022-09-15T01:31:52.382Z,13.86
2022-09-15T01:32:52.348Z,13.91
2022-09-15T01:33:52.328Z,13.96
2022-09-15T01:34:52.327Z,13.97
2022-09-15T01:35:52.364Z,13.94
2022-09-15T01:36:52.295Z,13.97
2022-09-15T01:37:52.299Z,13.96
2022-09-15T01:38:52.414Z,13.98
2022-09-15T01:39:52.319Z,14.00
2022-09-15T01:40:52.298Z,13.97
2022-09-15T01:41:52.250Z,13.96
2022-09-15T01:42:52.250Z,13.94
2022-09-15T01:43:52.245Z,13.97
2022-09-15T01:44:52.211Z,14.00
2022-09-15T01:45:52.259Z,14.00
2022-09-15T01:46:52.208Z,14.01
2022-09-15T01:47:52.210Z,14.03
2022-09-15T01:48:52.170Z,14.04
2022-09-15T01:49:52.194Z,14.04
2022-09-15T01:50:52.171Z,14.08
2022-09-15T01:51:52.130Z,14.11
2022-09-15T01:52:52.178Z,14.11
2022-09-15T01:53:52.206Z,14.12
2022-09-15T01:54:52.142Z,14.11
2022-09-15T01:55:52.436Z,14.13
2022-09-15T01:56:52.082Z,14.13
2022-09-15T01:57:52.080Z,14.13
2022-09-15T01:58:52.133Z,14.11
2022-09-15T01:59:52.042Z,14.13
2022-09-15T02:00:52.089Z,14.12
2022-09-15T02:01:52.107Z,14.13
2022-09-15T02:02:52.050Z,14.04
2022-09-15T02:03:52.006Z,14.04
2022-09-15T02:04:52.006Z,14.11
2022-09-15T02:05:51.998Z,14.01
2022-09-15T02:06:52.004Z,14.04
2022-09-15T02:07:51.994Z,14.04
2022-09-15T02:08:52.025Z,14.09
2022-09-15T02:09:51.965Z,14.05
2022-09-15T02:10:51.936Z,14.12
2022-09-15T02:11:51.938Z,14.12
2022-09-15T02:12:51.916Z,14.16
2022-09-15T02:13:51.951Z,14.13
2022-09-15T02:14:51.917Z,14.05
2022-09-15T02:15:51.867Z,14.11
2022-09-15T02:16:51.988Z,14.16
2022-09-15T02:17:51.881Z,14.19
2022-09-15T02:18:51.866Z,14.22
2022-09-15T02:19:51.876Z,14.15
2022-09-15T02:20:51.836Z,14.13
2022-09-15T02:21:51.851Z,14.15
2022-09-15T02:22:51.806Z,14.08
2022-09-15T02:23:52.003Z,14.08
2022-09-15T02:24:51.803Z,14.08
2022-09-15T02:25:51.785Z,14.05
2022-09-15T02:26:51.780Z,14.03
2022-09-15T02:27:51.810Z,14.08
2022-09-15T02:28:51.786Z,14.01
2022-09-15T02:29:51.721Z,14.00
2022-09-15T02:30:51.723Z,14.00
2022-09-15T02:31:51.787Z,14.00
2022-09-15T02:32:51.750Z,14.01
2022-09-15T02:33:51.684Z,13.96
2022-09-15T02:34:51.704Z,14.01
2022-09-15T02:35:51.661Z,14.03
2022-09-15T02:36:51.657Z,14.00
2022-09-15T02:37:51.684Z,14.01
2022-09-15T02:38:51.773Z,14.00
2022-09-15T02:39:51.705Z,14.00
2022-09-15T02:40:51.640Z,13.98
2022-09-15T02:41:52.373Z,14.04
2022-09-15T02:42:52.171Z,14.04
2022-09-15T02:43:51.567Z,14.00
2022-09-15T02:44:51.623Z,14.00
2022-09-15T02:45:51.970Z,13.94
2022-09-15T02:46:51.543Z,14.00
2022-09-15T02:47:51.552Z,13.94
2022-09-15T02:48:51.527Z,13.94
2022-09-15T02:49:51.506Z,13.94
2022-09-15T02:50:51.548Z,13.93
2022-09-15T02:51:51.496Z,13.96
2022-09-15T02:52:52.315Z,13.96
2022-09-15T02:53:51.499Z,14.01
2022-09-15T02:54:51.455Z,14.00
2022-09-15T02:55:51.447Z,13.97
2022-09-15T02:56:51.466Z,13.97
2022-09-15T02:57:51.426Z,13.94
2022-09-15T02:58:51.417Z,13.96
2022-09-15T02:59:51.407Z,13.94
2022-09-15T03:00:51.459Z,14.01
2022-09-15T03:01:51.536Z,14.03
2022-09-15T03:02:51.460Z,14.00
2022-09-15T03:03:51.360Z,14.03
2022-09-15T03:04:51.362Z,14.04
2022-09-15T03:05:51.387Z,14.05
2022-09-15T03:06:51.379Z,14.08
2022-09-15T03:07:51.371Z,14.04
2022-09-15T03:08:51.466Z,14.09
2022-09-15T03:09:51.311Z,14.08
2022-09-15T03:10:51.281Z,14.11
2022-09-15T03:11:51.270Z,14.08
2022-09-15T03:12:51.261Z,14.12
2022-09-15T03:13:51.294Z,14.11
2022-09-15T03:14:51.270Z,14.08
2022-09-15T03:15:51.245Z,14.04
2022-09-15T03:16:51.221Z,14.04
2022-09-15T03:17:51.224Z,14.01
2022-09-15T03:18:51.200Z,14.00
2022-09-15T03:19:51.232Z,13.96
2022-09-15T03:20:51.188Z,13.91
2022-09-15T03:21:51.197Z,13.93
2022-09-15T03:22:51.163Z,13.91
2022-09-15T03:23:51.289Z,13.88
2022-09-15T03:24:51.133Z,13.90
2022-09-15T03:25:51.138Z,13.80
2022-09-15T03:26:51.105Z,13.73
2022-09-15T03:27:51.155Z,13.75
2022-09-15T03:28:51.107Z,13.75
2022-09-15T03:29:51.085Z,13.71
2022-09-15T03:30:51.066Z,13.73
2022-09-15T03:31:51.177Z,13.75
2022-09-15T03:32:51.368Z,13.76
2022-09-15T03:33:51.066Z,13.79
2022-09-15T03:34:53.227Z,13.76
2022-09-15T03:35:51.022Z,13.82
2022-09-15T03:36:51.007Z,13.83
2022-09-15T03:37:51.073Z,13.73
2022-09-15T03:38:51.106Z,13.73
2022-09-15T03:39:51.023Z,13.71
2022-09-15T03:40:50.952Z,13.71
2022-09-15T03:41:50.947Z,13.73
2022-09-15T03:42:50.959Z,13.73
2022-09-15T03:43:50.954Z,13.68
2022-09-15T03:44:50.930Z,13.71
2022-09-15T03:45:50.923Z,13.71
2022-09-15T03:46:50.891Z,13.72
2022-09-15T03:47:50.910Z,13.68
2022-09-15T03:48:50.861Z,13.75
2022-09-15T03:49:50.890Z,13.75
2022-09-15T03:50:50.839Z,13.76
2022-09-15T03:51:50.847Z,13.75
2022-09-15T03:52:51.570Z,13.68
2022-09-15T03:53:51.029Z,13.63
2022-09-15T03:54:50.833Z,13.65
2022-09-15T03:55:50.793Z,13.55
2022-09-15T03:56:50.782Z,13.54
2022-09-15T03:57:50.783Z,13.54
2022-09-15T03:58:50.784Z,13.53
2022-09-15T03:59:50.800Z,13.51
2022-09-15T04:00:50.815Z,13.53
2022-09-15T04:01:50.772Z,13.55
2022-09-15T04:02:50.725Z,13.49
2022-09-15T04:03:51.515Z,13.51
2022-09-15T04:04:50.693Z,13.49
2022-09-15T04:05:50.725Z,13.46
2022-09-15T04:06:50.674Z,13.43
2022-09-15T04:07:50.674Z,13.45
2022-09-15T04:08:50.839Z,13.40
2022-09-15T04:09:50.647Z,13.43
2022-09-15T04:10:50.627Z,13.39
2022-09-15T04:11:50.665Z,13.38
2022-09-15T04:12:50.616Z,13.42
2022-09-15T04:13:50.586Z,13.43
2022-09-15T04:14:50.577Z,13.42
2022-09-15T04:15:50.604Z,13.38
2022-09-15T04:16:50.587Z,13.43
2022-09-15T04:17:50.558Z,13.42
2022-09-15T04:18:50.550Z,13.38
2022-09-15T04:19:50.541Z,13.38
2022-09-15T04:20:50.517Z,13.36
2022-09-15T04:21:50.519Z,13.39
2022-09-15T04:22:50.507Z,13.39
2022-09-15T04:23:50.547Z,13.40
2022-09-15T04:24:50.481Z,13.30
2022-09-15T04:25:50.460Z,13.30
2022-09-15T04:26:50.543Z,13.29
2022-09-15T04:27:50.469Z,13.29
2022-09-15T04:28:50.459Z,13.29
2022-09-15T04:29:50.451Z,13.32
2022-09-15T04:30:50.400Z,13.27
2022-09-15T04:31:50.498Z,13.27
2022-09-15T04:32:50.402Z,13.35
2022-09-15T04:33:50.373Z,13.32
2022-09-15T04:34:50.405Z,13.39
2022-09-15T04:35:50.362Z,13.36
2022-09-15T04:36:50.353Z,13.38
2022-09-15T04:37:50.372Z,13.35
2022-09-15T04:38:50.563Z,13.38
2022-09-15T04:39:50.393Z,13.35
2022-09-15T04:40:50.293Z,13.39
2022-09-15T04:41:50.345Z,13.43
2022-09-15T04:42:50.274Z,13.46
2022-09-15T04:43:50.284Z,13.45
2022-09-15T04:44:50.277Z,13.47
2022-09-15T04:45:50.246Z,13.45
2022-09-15T04:46:50.306Z,13.26
2022-09-15T04:47:50.247Z,13.19
2022-09-15T04:48:50.238Z,13.14
2022-09-15T04:49:50.206Z,13.19
2022-09-15T04:50:50.216Z,13.21
2022-09-15T04:51:50.218Z,13.27
2022-09-15T04:52:50.176Z,13.26
2022-09-15T04:53:50.366Z,13.21
2022-09-15T04:54:50.148Z,13.29
2022-09-15T04:55:50.158Z,13.29
2022-09-15T04:56:50.160Z,13.29
2022-09-15T04:57:50.156Z,13.35
2022-09-15T04:58:50.134Z,13.30
2022-09-15T04:59:50.102Z,13.32
2022-09-15T05:00:50.141Z,13.32
2022-09-15T05:01:50.142Z,13.38
2022-09-15T05:02:50.089Z,13.38
2022-09-15T06:58:48.294Z,13.23
2022-09-15T06:59:48.226Z,13.17
2022-09-15T07:00:48.196Z,13.08
2022-09-15T07:01:48.260Z,13.14
2022-09-15T07:02:48.367Z,13.13
2022-09-15T07:03:48.255Z,13.13
2022-09-15T07:04:48.183Z,13.16
2022-09-15T07:05:48.173Z,13.13
2022-09-15T07:06:48.125Z,13.19
2022-09-15T07:07:48.134Z,13.20
2022-09-15T07:08:48.109Z,13.21
2022-09-15T07:09:49.161Z,13.27
2022-09-15T07:10:48.117Z,13.35
2022-09-15T07:11:48.103Z,13.36
2022-09-15T07:12:48.086Z,13.40
2022-09-15T07:13:48.135Z,13.42
2022-09-15T07:14:48.104Z,13.40
2022-09-15T07:15:48.051Z,13.45
2022-09-15T07:16:48.124Z,13.39
2022-09-15T07:17:48.078Z,13.40
2022-09-15T07:18:48.027Z,13.38
2022-09-15T07:19:48.046Z,13.42
2022-09-15T07:20:48.030Z,13.36
2022-09-15T07:21:47.987Z,13.42
2022-09-15T07:22:47.987Z,13.43
2022-09-15T07:23:48.005Z,13.45
2022-09-15T07:24:48.009Z,13.47
2022-09-15T07:25:47.976Z,13.43
2022-09-15T07:26:47.969Z,13.46
2022-09-15T07:27:47.935Z,13.47
2022-09-15T07:28:47.917Z,13.51
2022-09-15T07:29:47.937Z,13.47
2022-09-15T07:30:47.908Z,13.54
2022-09-15T07:31:47.967Z,13.55
2022-09-15T07:32:47.937Z,13.55
2022-09-15T07:33:47.868Z,13.55
2022-09-15T07:34:47.882Z,13.54
2022-09-15T07:35:47.916Z,13.58
2022-09-15T07:36:47.860Z,13.57
2022-09-15T07:37:47.820Z,13.58
2022-09-15T07:38:47.840Z,13.63
2022-09-15T07:39:47.952Z,13.71
2022-09-15T07:40:47.800Z,13.73
2022-09-15T07:41:47.802Z,13.79
2022-09-15T07:42:47.813Z,13.78
2022-09-15T07:43:47.759Z,13.82
2022-09-15T07:44:47.780Z,13.85
2022-09-15T07:45:47.831Z,13.94
2022-09-15T07:46:47.742Z,13.93
2022-09-15T07:47:47.741Z,13.94
2022-09-15T07:48:47.744Z,13.96
2022-09-15T07:49:47.707Z,13.97
2022-09-15T07:50:47.712Z,13.83
2022-09-15T07:51:47.686Z,13.86
2022-09-15T07:52:47.704Z,13.88
2022-09-15T07:53:47.647Z,13.88
2022-09-15T07:54:47.627Z,13.85
2022-09-15T07:55:47.674Z,13.85
2022-09-15T07:56:47.613Z,13.85
2022-09-15T07:57:47.639Z,13.80
2022-09-15T07:58:47.606Z,13.82
2022-09-15T07:59:47.625Z,13.79
2022-09-15T08:00:47.629Z,13.79
2022-09-15T08:01:47.618Z,13.75
2022-09-15T08:02:47.549Z,13.72
2022-09-15T08:03:47.553Z,13.68
2022-09-15T08:04:47.588Z,13.68
2022-09-15T08:05:47.573Z,13.68
2022-09-15T08:06:47.504Z,13.71
2022-09-15T08:07:47.509Z,13.73
2022-09-15T08:08:47.526Z,13.72
2022-09-15T08:09:47.507Z,13.75
2022-09-15T08:10:47.524Z,13.73
2022-09-15T08:11:47.511Z,13.73
2022-09-15T08:12:47.471Z,13.73
2022-09-15T08:13:48.181Z,13.72
2022-09-15T08:14:47.420Z,13.73
2022-09-15T08:15:47.499Z,13.76
2022-09-15T08:16:47.399Z,13.75
2022-09-15T08:17:47.378Z,13.80
2022-09-15T08:18:47.419Z,13.83
2022-09-15T08:19:47.371Z,13.88
2022-09-15T08:20:47.384Z,13.96
2022-09-15T08:21:47.349Z,13.96
2022-09-15T08:22:47.370Z,14.00
2022-09-15T08:23:47.324Z,14.08
2022-09-15T08:24:47.317Z,14.11
2022-09-15T08:25:47.331Z,14.13
2022-09-15T08:26:47.286Z,14.08
2022-09-15T08:27:47.281Z,14.19
2022-09-15T08:28:47.292Z,14.26
2022-09-15T08:29:47.316Z,14.28
2022-09-15T08:30:47.291Z,14.34
2022-09-15T08:31:47.309Z,14.37
2022-09-15T08:32:47.269Z,14.41
2022-09-15T08:33:47.213Z,14.46
2022-09-15T08:34:47.202Z,14.44
2022-09-15T08:35:47.318Z,14.33
2022-09-15T08:36:47.175Z,14.28
2022-09-15T08:37:47.177Z,14.27
2022-09-15T08:38:47.169Z,14.27
2022-09-15T08:39:47.207Z,14.26
2022-09-15T08:40:47.157Z,14.19
2022-09-15T08:41:47.180Z,14.15
2022-09-15T08:42:47.114Z,14.13
2022-09-15T08:43:47.116Z,14.16
2022-09-15T08:44:47.113Z,14.16
2022-09-15T08:45:47.116Z,14.23
2022-09-15T08:46:47.170Z,14.27
2022-09-15T08:47:47.088Z,14.30
2022-09-15T08:48:47.067Z,14.33
2022-09-15T08:49:51.962Z,14.38
2022-09-15T08:50:48.049Z,14.46
2022-09-15T08:51:47.066Z,14.51
2022-09-15T08:52:47.030Z,14.53
2022-09-15T08:53:47.006Z,14.55
2022-09-15T08:54:46.990Z,14.55
2022-09-15T08:55:46.971Z,14.55
2022-09-15T08:56:47.020Z,14.53
2022-09-15T08:57:46.960Z,14.58
2022-09-15T08:58:46.936Z,14.61
2022-09-15T08:59:46.944Z,14.64
2022-09-15T09:00:46.961Z,14.61
2022-09-15T09:01:46.952Z,14.58
2022-09-15T09:02:46.978Z,14.61
2022-09-15T09:03:46.890Z,14.61
2022-09-15T09:04:46.911Z,14.59
2022-09-15T09:05:46.870Z,14.63
2022-09-15T09:06:46.903Z,14.64
2022-09-15T09:07:46.875Z,14.64
2022-09-15T09:08:46.866Z,14.63
2022-09-15T09:09:46.820Z,14.66
2022-09-15T09:10:46.812Z,14.67
2022-09-15T09:11:46.822Z,14.79
2022-09-15T09:12:46.815Z,14.85
2022-09-15T09:13:46.819Z,14.90
2022-09-15T09:14:46.801Z,15.01
2022-09-15T09:15:46.806Z,15.04
2022-09-15T09:16:46.741Z,15.08
2022-09-15T09:17:46.794Z,15.08
2022-09-15T09:18:46.727Z,15.11
2022-09-15T09:19:46.727Z,15.07
2022-09-15T09:20:46.714Z,15.07
2022-09-15T09:21:46.696Z,15.03
2022-09-15T09:22:46.735Z,14.97
2022-09-15T09:23:46.679Z,14.96
2022-09-15T09:24:46.679Z,14.93
2022-09-15T09:25:46.682Z,14.85
2022-09-15T09:26:46.665Z,14.79
2022-09-15T09:27:46.664Z,14.77
2022-09-15T09:28:46.622Z,14.71
2022-09-15T09:29:46.637Z,14.71
2022-09-15T09:30:46.618Z,14.61
2022-09-15T09:31:46.638Z,14.59
2022-09-15T09:32:46.608Z,14.56
2022-09-15T09:33:47.979Z,14.53
2022-09-15T09:34:46.560Z,14.55
2022-09-15T09:35:46.560Z,14.56
2022-09-15T09:36:46.543Z,14.56
2022-09-15T09:37:46.534Z,14.61
2022-09-15T09:38:46.552Z,14.69
2022-09-15T09:39:46.613Z,14.71
2022-09-15T09:40:46.509Z,14.71
2022-09-15T09:41:46.496Z,14.74
2022-09-15T09:42:46.479Z,14.74
2022-09-15T09:43:46.497Z,14.83
2022-09-15T09:44:46.498Z,14.86
2022-09-15T09:45:46.483Z,14.92
2022-09-15T09:46:46.462Z,14.96
2022-09-15T09:47:46.455Z,15.11
2022-09-15T09:48:46.449Z,15.14
2022-09-15T09:49:46.431Z,15.22
2022-09-15T09:50:46.402Z,15.27
2022-09-15T09:51:46.424Z,15.32
2022-09-15T09:52:46.371Z,15.38
2022-09-15T09:53:46.404Z,15.44
2022-09-15T09:54:46.363Z,15.48
2022-09-15T09:55:46.353Z,15.50
2022-09-15T09:56:46.331Z,15.50
2022-09-15T09:57:46.318Z,15.52
2022-09-15T09:58:46.316Z,15.56
2022-09-15T09:59:46.335Z,15.54
2022-09-15T10:00:46.289Z,15.59
2022-09-15T10:01:46.305Z,15.62
2022-09-15T10:02:46.283Z,15.68
2022-09-15T10:03:46.259Z,15.76
2022-09-15T10:04:46.336Z,15.83
2022-09-15T10:05:46.258Z,15.84
2022-09-15T10:06:46.229Z,15.81
2022-09-15T10:07:46.214Z,15.78
2022-09-15T10:08:46.211Z,15.81
2022-09-15T10:09:46.187Z,15.78
2022-09-15T10:10:46.228Z,15.77
2022-09-15T10:11:46.174Z,15.77
2022-09-15T10:12:46.175Z,15.73
2022-09-15T10:13:46.139Z,15.78
2022-09-15T10:14:46.176Z,15.77
2022-09-15T10:15:46.146Z,15.81
2022-09-15T10:16:46.326Z,15.84
2022-09-15T10:17:46.112Z,15.87
2022-09-15T10:18:46.171Z,15.87
2022-09-15T10:19:46.118Z,15.90
2022-09-15T10:20:46.072Z,15.88
2022-09-15T10:21:46.073Z,15.83
2022-09-15T10:22:46.047Z,15.81
2022-09-15T10:23:46.052Z,15.81
2022-09-15T10:24:46.061Z,15.81
2022-09-15T10:26:01.378Z,15.85
2022-09-15T10:26:47.003Z,15.84
2022-09-15T10:27:46.002Z,15.85
2022-09-15T10:28:45.982Z,15.85
2022-09-15T10:29:46.015Z,15.85
2022-09-15T10:30:45.992Z,15.88
2022-09-15T10:31:46.083Z,15.90
2022-09-15T10:32:45.938Z,15.91
2022-09-15T10:33:45.953Z,15.93
2022-09-15T10:34:45.935Z,15.95
2022-09-15T10:35:45.934Z,16.00
2022-09-15T10:36:45.906Z,16.02
2022-09-15T10:37:45.913Z,16.05
2022-09-15T10:38:45.885Z,16.05
2022-09-15T10:39:45.941Z,16.05
2022-09-15T10:40:45.880Z,16.06
2022-09-15T10:41:45.899Z,16.13
2022-09-15T10:42:45.832Z,16.18
2022-09-15T10:43:45.835Z,16.24
2022-09-15T10:44:45.816Z,16.26
2022-09-15T10:45:45.866Z,16.34
2022-09-15T10:46:45.796Z,16.37
2022-09-15T10:47:45.788Z,16.40
2022-09-15T10:48:45.772Z,16.49
2022-09-15T10:49:45.755Z,16.55
2022-09-15T10:50:45.747Z,16.64
2022-09-15T10:51:45.805Z,16.70
2022-09-15T10:52:45.715Z,16.79
2022-09-15T10:53:45.717Z,16.83
2022-09-15T10:54:45.689Z,16.87
2022-09-15T10:55:53.614Z,16.84
2022-09-15T10:56:46.700Z,16.84
2022-09-15T10:57:45.678Z,16.87
2022-09-15T10:58:46.024Z,16.87
2022-09-15T10:59:45.655Z,16.94
2022-09-15T11:00:45.668Z,17.04
2022-09-15T11:01:45.703Z,17.10
2022-09-15T11:02:45.656Z,17.12
2022-09-15T11:03:45.639Z,17.06
2022-09-15T11:04:45.621Z,17.01
2022-09-15T11:05:45.590Z,16.95
2022-09-15T11:06:45.563Z,16.94
2022-09-15T11:07:45.601Z,16.87
2022-09-15T11:08:45.600Z,16.88
2022-09-15T11:09:45.733Z,16.84
2022-09-15T11:10:45.655Z,16.80
2022-09-15T11:11:45.532Z,16.80
2022-09-15T11:12:45.532Z,16.80
2022-09-15T11:13:45.497Z,16.79
2022-09-15T11:14:45.492Z,16.80
2022-09-15T11:15:45.483Z,16.82
2022-09-15T11:16:45.513Z,16.83
2022-09-15T11:17:45.483Z,16.88
2022-09-15T11:18:45.486Z,16.94
2022-09-15T11:19:45.436Z,16.99
2022-09-15T11:20:45.423Z,17.02
2022-09-15T11:21:46.738Z,17.04
2022-09-15T11:22:49.451Z,17.07
2022-09-15T11:23:45.412Z,17.07
2022-09-15T11:24:46.223Z,17.06
2022-09-15T11:25:45.367Z,17.12
2022-09-15T11:26:45.372Z,17.10
2022-09-15T11:27:45.362Z,17.12
2022-09-15T11:28:45.364Z,17.13
2022-09-15T11:29:45.326Z,17.13
2022-09-15T11:30:47.801Z,17.17
2022-09-15T11:31:45.422Z,17.16
2022-09-15T11:32:45.304Z,17.20
2022-09-15T11:33:45.380Z,17.19
2022-09-15T11:34:45.309Z,17.24
2022-09-15T11:35:45.263Z,17.30
2022-09-15T11:36:45.254Z,17.31
2022-09-15T11:37:45.297Z,17.34
2022-09-15T11:38:45.288Z,17.32
2022-09-15T11:39:45.412Z,17.35
2022-09-15T11:40:45.221Z,17.38
2022-09-15T11:41:45.209Z,17.45
2022-09-15T11:42:45.976Z,17.49
2022-09-15T11:43:45.183Z,17.50
2022-09-15T11:44:45.197Z,17.54
2022-09-15T11:45:45.173Z,17.57
2022-09-15T11:46:45.192Z,17.59
2022-09-15T11:47:45.135Z,17.62
2022-09-15T11:48:45.284Z,17.65
2022-09-15T11:49:45.114Z,17.68
2022-09-15T11:50:45.101Z,17.68
2022-09-15T11:51:45.097Z,17.66
2022-09-15T11:52:45.071Z,17.63
2022-09-15T11:53:45.076Z,17.65
2022-09-15T11:54:45.094Z,17.62
2022-09-15T11:55:45.047Z,17.62
2022-09-15T11:56:45.028Z,17.66
2022-09-15T11:57:45.026Z,17.63
2022-09-15T11:58:45.024Z,17.63
2022-09-15T11:59:45.187Z,17.62
2022-09-15T12:00:45.005Z,17.62
2022-09-15T12:01:45.057Z,17.63
2022-09-15T12:02:45.059Z,17.63
2022-09-15T12:03:45.030Z,17.66
2022-09-15T12:04:44.970Z,17.66
2022-09-15T12:05:45.122Z,17.71
2022-09-15T12:06:45.936Z,17.71
2022-09-15T12:07:44.904Z,17.71
2022-09-15T12:08:44.935Z,17.72
2022-09-15T12:09:44.890Z,17.73
2022-09-15T12:10:44.889Z,17.71
2022-09-15T12:11:44.892Z,17.63
2022-09-15T12:12:44.884Z,17.59
2022-09-15T12:13:44.849Z,17.56
2022-09-15T12:14:44.868Z,17.54
2022-09-15T12:15:45.237Z,17.56
2022-09-15T12:16:44.837Z,17.59
2022-09-15T12:17:44.819Z,17.62
2022-09-15T12:18:46.783Z,17.69
2022-09-15T12:19:44.799Z,17.73
2022-09-15T12:20:44.769Z,17.78
2022-09-15T12:21:44.791Z,17.76
2022-09-15T12:22:44.773Z,17.78
2022-09-15T12:23:44.815Z,17.79
2022-09-15T12:24:44.722Z,17.81
2022-09-15T12:25:44.766Z,17.81
2022-09-15T12:26:44.756Z,17.86
2022-09-15T12:27:44.702Z,17.90
2022-09-15T12:28:44.746Z,17.93
2022-09-15T12:29:44.683Z,17.94
2022-09-15T12:30:44.692Z,17.94
2022-09-15T12:31:44.674Z,17.97
2022-09-15T12:32:44.656Z,17.97
2022-09-15T12:33:44.646Z,17.97
2022-09-15T12:34:45.352Z,18.01
2022-09-15T12:35:44.605Z,18.06
2022-09-15T12:36:44.626Z,18.09
2022-09-15T12:37:44.600Z,18.13
2022-09-15T12:38:44.610Z,18.15
2022-09-15T12:39:44.578Z,18.17
2022-09-15T12:40:44.557Z,18.17
2022-09-15T12:41:44.913Z,18.12
2022-09-15T12:42:44.537Z,18.08
2022-09-15T12:43:44.539Z,18.06
2022-09-15T12:44:44.509Z,18.02
2022-09-15T12:45:44.486Z,18.01
2022-09-15T12:46:44.517Z,18.01
2022-09-15T12:47:44.511Z,18.01
2022-09-15T12:48:47.393Z,18.03
2022-09-15T12:49:44.442Z,18.08
2022-09-15T12:50:44.446Z,18.09
2022-09-15T12:51:44.441Z,18.13
2022-09-15T12:52:44.451Z,18.20
2022-09-15T12:53:45.708Z,18.21
2022-09-15T12:54:44.406Z,18.18
2022-09-15T12:55:44.391Z,18.18
2022-09-15T12:56:44.385Z,18.18
2022-09-15T12:57:44.398Z,18.20
2022-09-15T12:58:44.373Z,18.23
2022-09-15T12:59:44.353Z,18.26
2022-09-15T13:01:13.865Z,18.27
2022-09-15T13:01:45.408Z,18.30
2022-09-15T13:02:44.474Z,18.33
2022-09-15T13:03:44.305Z,18.36
2022-09-15T13:04:44.318Z,18.38
2022-09-15T13:05:44.294Z,18.38
2022-09-15T13:06:44.265Z,18.41
2022-09-15T13:07:44.298Z,18.43
2022-09-15T13:08:44.261Z,18.46
2022-09-15T13:09:44.228Z,18.48
2022-09-15T13:10:44.246Z,18.45
2022-09-15T13:12:44.280Z,18.45
2022-09-15T13:13:44.283Z,18.42
2022-09-15T13:14:44.208Z,18.43
2022-09-15T13:15:44.230Z,18.42
2022-09-15T13:16:44.154Z,18.43
2022-09-15T13:17:44.225Z,18.48
2022-09-15T13:18:44.146Z,18.51
2022-09-15T13:19:44.137Z,18.49
2022-09-15T13:20:44.117Z,18.48
2022-09-15T13:21:44.111Z,18.46
2022-09-15T13:22:44.110Z,18.42
2022-09-15T13:23:44.116Z,18.39
2022-09-15T13:24:44.088Z,18.34
2022-09-15T13:25:44.058Z,18.26
2022-09-15T13:26:44.061Z,18.20
2022-09-15T13:27:44.060Z,18.12
2022-09-15T13:28:44.068Z,18.12
2022-09-15T13:29:44.018Z,18.09
2022-09-15T13:30:44.068Z,18.08
2022-09-15T13:31:43.998Z,18.09
2022-09-15T13:32:44.003Z,18.12
2022-09-15T13:35:05.566Z,18.13
2022-09-15T13:35:44.952Z,18.11
2022-09-15T13:38:45.012Z,18.08
2022-09-15T13:39:43.911Z,18.12
2022-09-15T13:40:43.922Z,18.13
2022-09-15T13:41:43.892Z,18.11
2022-09-15T13:42:43.894Z,18.11
2022-09-15T13:43:43.874Z,18.11
2022-09-15T13:44:43.914Z,18.09
2022-09-15T13:45:43.883Z,18.02
2022-09-15T13:46:43.850Z,18.01
2022-09-15T13:47:43.834Z,17.96
2022-09-15T13:48:43.827Z,17.88
2022-09-15T13:49:43.834Z,17.83
2022-09-15T13:50:43.809Z,17.76
2022-09-15T13:51:43.785Z,17.73
2022-09-15T13:52:43.776Z,17.75
2022-09-15T13:53:43.770Z,17.73
2022-09-15T13:54:43.787Z,17.75
2022-09-15T13:55:43.745Z,17.79
2022-09-15T13:56:43.743Z,17.83
2022-09-15T13:59:07.065Z,17.88
2022-09-15T13:59:44.726Z,17.93
2022-09-15T14:00:43.689Z,17.97
2022-09-15T14:01:43.703Z,17.97
2022-09-15T14:02:43.790Z,18.02
2022-09-15T14:03:43.725Z,18.06
2022-09-15T14:04:43.660Z,18.11
2022-09-15T14:05:43.705Z,18.09
2022-09-15T14:06:43.640Z,18.11
2022-09-15T14:07:43.610Z,18.08
2022-09-15T14:08:43.602Z,18.08
2022-09-15T14:09:43.613Z,18.05
2022-09-15T14:10:43.652Z,18.05
2022-09-15T14:11:43.583Z,18.03
2022-09-15T14:12:43.561Z,18.01
2022-09-15T14:13:43.555Z,18.03
2022-09-15T14:14:43.551Z,18.02
2022-09-15T14:15:43.537Z,18.03
2022-09-15T14:16:43.564Z,18.03
2022-09-15T14:17:43.514Z,18.02
2022-09-15T14:18:43.492Z,17.99
2022-09-15T14:19:43.493Z,17.94
2022-09-15T14:20:43.482Z,17.93
2022-09-15T14:21:43.484Z,17.79
2022-09-15T14:22:43.455Z,17.72
2022-09-15T14:23:43.445Z,17.65
2022-09-15T14:24:43.449Z,17.57
2022-09-15T14:25:43.445Z,17.54
2022-09-15T14:26:43.439Z,17.54
2022-09-15T14:27:43.406Z,17.53
2022-09-15T14:28:43.407Z,17.52
2022-09-15T14:29:43.380Z,17.54
2022-09-15T14:30:43.367Z,17.54
2022-09-15T14:31:43.464Z,17.56
2022-09-15T14:32:43.346Z,17.57
2022-09-15T14:33:50.063Z,17.56
2022-09-15T14:34:43.371Z,17.57
2022-09-15T14:35:43.318Z,17.54
2022-09-15T14:36:43.327Z,17.52
2022-09-15T14:37:43.279Z,17.50
2022-09-15T14:38:43.270Z,17.52
2022-09-15T14:39:43.262Z,17.54
2022-09-15T14:40:43.276Z,17.56
2022-09-15T14:41:43.261Z,17.56
2022-09-15T14:42:43.237Z,17.57
2022-09-15T14:43:43.252Z,17.56
2022-09-15T14:45:53.949Z,17.59
2022-09-15T14:46:44.223Z,17.62
2022-09-15T14:47:43.226Z,17.66
2022-09-15T14:48:43.177Z,17.68
2022-09-15T14:49:43.166Z,17.71
2022-09-15T14:50:43.154Z,17.72
2022-09-15T14:51:43.138Z,17.71
2022-09-15T14:52:43.151Z,17.72
2022-09-15T14:53:43.118Z,17.71